Terminal Aerodrome Forecast
Issued by NWS

Home | Current Version | Previous Version | Text Only | Print | Product List | Glossary On
Versions: 1 2 3 4 5 6 7 8 9 10 11 12 13 14
000
FTUS45 KABQ 280536
TAFROW
TAF
KROW 280536Z 2806/2906 29011KT P6SM BKN250
      TEMPO 2806/2810 29015G25KT
     FM281100 33009KT P6SM SCT250
     FM281630 23015G25KT P6SM BKN100
     FM282000 24025G35KT P6SM SCT060 BKN100
     FM290130 34017G27KT P6SM VCSH SCT030 BKN060=

USA.gov is the U.S. government's official web portal to all federal, state and local government web resources and services.